sensor_id;sensor_type;location;lat;lon;timestamp;P1;durP1;ratioP1;P2;durP2;ratioP2
75209;SDS011;63796;53.136;14.882;2023-05-07T00:02:07;5.60;;;3.80;;
75209;SDS011;63796;53.136;14.882;2023-05-07T00:04:35;6.10;;;3.70;;
75209;SDS011;63796;53.136;14.882;2023-05-07T00:07:04;5.60;;;3.70;;
75209;SDS011;63796;53.136;14.882;2023-05-07T00:09:32;6.80;;;4.30;;
75209;SDS011;63796;53.136;14.882;2023-05-07T00:12:00;7.10;;;4.00;;
75209;SDS011;63796;53.136;14.882;2023-05-07T00:14:27;9.50;;;5.20;;
75209;SDS011;63796;53.136;14.882;2023-05-07T00:16:55;9.20;;;4.40;;
75209;SDS011;63796;53.136;14.882;2023-05-07T00:19:23;8.90;;;4.30;;
75209;SDS011;63796;53.136;14.882;2023-05-07T00:21:50;7.30;;;4.20;;
75209;SDS011;63796;53.136;14.882;2023-05-07T00:24:17;7.60;;;4.40;;
75209;SDS011;63796;53.136;14.882;2023-05-07T00:26:44;6.10;;;4.10;;
75209;SDS011;63796;53.136;14.882;2023-05-07T00:29:11;8.50;;;3.80;;
75209;SDS011;63796;53.136;14.882;2023-05-07T00:31:39;5.60;;;4.00;;
75209;SDS011;63796;53.136;14.882;2023-05-07T00:34:06;6.20;;;3.80;;
75209;SDS011;63796;53.136;14.882;2023-05-07T00:36:33;5.40;;;3.90;;
75209;SDS011;63796;53.136;14.882;2023-05-07T00:39:01;6.90;;;3.60;;
75209;SDS011;63796;53.136;14.882;2023-05-07T00:41:30;5.70;;;3.90;;
75209;SDS011;63796;53.136;14.882;2023-05-07T00:43:58;9.80;;;4.10;;
75209;SDS011;63796;53.136;14.882;2023-05-07T00:46:25;6.10;;;4.10;;
75209;SDS011;63796;53.136;14.882;2023-05-07T00:48:53;7.00;;;3.70;;
75209;SDS011;63796;53.136;14.882;2023-05-07T00:51:21;8.40;;;4.10;;
75209;SDS011;63796;53.136;14.882;2023-05-07T00:53:49;6.40;;;4.00;;
75209;SDS011;63796;53.136;14.882;2023-05-07T00:56:16;5.60;;;3.90;;
75209;SDS011;63796;53.136;14.882;2023-05-07T00:58:44;7.90;;;4.30;;
75209;SDS011;63796;53.136;14.882;2023-05-07T01:01:12;5.80;;;4.00;;
75209;SDS011;63796;53.136;14.882;2023-05-07T01:03:40;9.00;;;4.30;;
75209;SDS011;63796;53.136;14.882;2023-05-07T01:06:08;6.10;;;3.80;;
75209;SDS011;63796;53.136;14.882;2023-05-07T01:08:36;6.70;;;4.00;;
75209;SDS011;63796;53.136;14.882;2023-05-07T01:11:03;6.30;;;4.20;;
75209;SDS011;63796;53.136;14.882;2023-05-07T01:13:31;11.10;;;4.50;;
75209;SDS011;63796;53.136;14.882;2023-05-07T01:15:59;6.50;;;4.10;;
75209;SDS011;63796;53.136;14.882;2023-05-07T01:18:26;7.60;;;4.30;;
75209;SDS011;63796;53.136;14.882;2023-05-07T01:20:55;6.40;;;3.90;;
75209;SDS011;63796;53.136;14.882;2023-05-07T01:23:25;9.30;;;3.60;;
75209;SDS011;63796;53.136;14.882;2023-05-07T01:25:53;6.90;;;4.10;;
75209;SDS011;63796;53.136;14.882;2023-05-07T01:28:20;6.50;;;4.30;;
75209;SDS011;63796;53.136;14.882;2023-05-07T01:30:53;7.10;;;4.20;;
75209;SDS011;63796;53.136;14.882;2023-05-07T01:33:23;9.10;;;3.90;;
75209;SDS011;63796;53.136;14.882;2023-05-07T01:35:53;7.60;;;4.20;;
75209;SDS011;63796;53.136;14.882;2023-05-07T01:38:22;5.40;;;3.70;;
75209;SDS011;63796;53.136;14.882;2023-05-07T01:40:49;8.90;;;4.10;;
75209;SDS011;63796;53.136;14.882;2023-05-07T01:43:17;5.80;;;3.90;;
75209;SDS011;63796;53.136;14.882;2023-05-07T01:45:45;8.50;;;4.40;;
75209;SDS011;63796;53.136;14.882;2023-05-07T01:48:14;11.90;;;4.30;;
75209;SDS011;63796;53.136;14.882;2023-05-07T01:50:42;7.50;;;4.20;;
75209;SDS011;63796;53.136;14.882;2023-05-07T01:53:10;6.50;;;4.30;;
75209;SDS011;63796;53.136;14.882;2023-05-07T01:55:37;6.00;;;4.10;;
75209;SDS011;63796;53.136;14.882;2023-05-07T01:58:05;7.80;;;4.60;;
75209;SDS011;63796;53.136;14.882;2023-05-07T02:00:32;6.80;;;4.50;;
75209;SDS011;63796;53.136;14.882;2023-05-07T02:03:00;6.20;;;4.50;;
75209;SDS011;63796;53.136;14.882;2023-05-07T02:05:27;6.90;;;4.70;;
75209;SDS011;63796;53.136;14.882;2023-05-07T02:07:55;7.90;;;3.60;;
75209;SDS011;63796;53.136;14.882;2023-05-07T02:10:22;9.10;;;4.60;;
75209;SDS011;63796;53.136;14.882;2023-05-07T02:12:49;7.50;;;4.10;;
75209;SDS011;63796;53.136;14.882;2023-05-07T02:15:17;9.80;;;4.10;;
75209;SDS011;63796;53.136;14.882;2023-05-07T02:20:27;6.60;;;4.00;;
75209;SDS011;63796;53.136;14.882;2023-05-07T02:22:54;7.80;;;4.30;;
75209;SDS011;63796;53.136;14.882;2023-05-07T02:25:21;9.80;;;4.60;;
75209;SDS011;63796;53.136;14.882;2023-05-07T02:27:49;10.00;;;4.40;;
75209;SDS011;63796;53.136;14.882;2023-05-07T02:30:16;6.30;;;4.40;;
75209;SDS011;63796;53.136;14.882;2023-05-07T02:32:43;9.70;;;4.70;;
75209;SDS011;63796;53.136;14.882;2023-05-07T02:35:11;6.60;;;3.90;;
75209;SDS011;63796;53.136;14.882;2023-05-07T02:37:38;11.20;;;4.90;;
75209;SDS011;63796;53.136;14.882;2023-05-07T02:40:06;5.60;;;3.70;;
75209;SDS011;63796;53.136;14.882;2023-05-07T02:42:34;7.80;;;4.70;;
75209;SDS011;63796;53.136;14.882;2023-05-07T02:45:01;8.00;;;4.50;;
75209;SDS011;63796;53.136;14.882;2023-05-07T02:47:28;11.10;;;4.20;;
75209;SDS011;63796;53.136;14.882;2023-05-07T02:49:56;7.30;;;4.00;;
75209;SDS011;63796;53.136;14.882;2023-05-07T02:52:23;7.20;;;4.10;;
75209;SDS011;63796;53.136;14.882;2023-05-07T02:54:50;7.50;;;4.50;;
75209;SDS011;63796;53.136;14.882;2023-05-07T02:57:17;6.90;;;4.00;;
75209;SDS011;63796;53.136;14.882;2023-05-07T02:59:45;7.10;;;4.10;;
75209;SDS011;63796;53.136;14.882;2023-05-07T03:02:12;8.10;;;4.20;;
75209;SDS011;63796;53.136;14.882;2023-05-07T03:04:39;8.70;;;4.30;;
75209;SDS011;63796;53.136;14.882;2023-05-07T03:07:07;9.80;;;3.90;;
75209;SDS011;63796;53.136;14.882;2023-05-07T03:09:34;11.50;;;4.10;;
75209;SDS011;63796;53.136;14.882;2023-05-07T03:12:02;8.20;;;4.40;;
75209;SDS011;63796;53.136;14.882;2023-05-07T03:14:29;8.20;;;4.00;;
75209;SDS011;63796;53.136;14.882;2023-05-07T03:16:56;10.40;;;4.10;;
75209;SDS011;63796;53.136;14.882;2023-05-07T03:19:23;6.80;;;4.40;;
75209;SDS011;63796;53.136;14.882;2023-05-07T03:21:50;6.50;;;4.00;;
75209;SDS011;63796;53.136;14.882;2023-05-07T03:24:18;6.50;;;4.30;;
75209;SDS011;63796;53.136;14.882;2023-05-07T03:26:45;7.00;;;3.90;;
75209;SDS011;63796;53.136;14.882;2023-05-07T03:29:12;7.10;;;4.10;;
75209;SDS011;63796;53.136;14.882;2023-05-07T03:31:39;7.10;;;4.40;;
75209;SDS011;63796;53.136;14.882;2023-05-07T03:34:07;8.90;;;5.40;;
75209;SDS011;63796;53.136;14.882;2023-05-07T03:36:34;6.10;;;4.10;;
75209;SDS011;63796;53.136;14.882;2023-05-07T03:39:01;8.80;;;4.30;;
75209;SDS011;63796;53.136;14.882;2023-05-07T03:41:28;6.70;;;4.20;;
75209;SDS011;63796;53.136;14.882;2023-05-07T03:43:56;8.50;;;4.90;;
75209;SDS011;63796;53.136;14.882;2023-05-07T03:46:23;7.30;;;3.70;;
75209;SDS011;63796;53.136;14.882;2023-05-07T03:48:53;11.40;;;4.80;;
75209;SDS011;63796;53.136;14.882;2023-05-07T03:51:20;8.20;;;4.20;;
75209;SDS011;63796;53.136;14.882;2023-05-07T03:53:48;7.00;;;4.70;;
75209;SDS011;63796;53.136;14.882;2023-05-07T03:56:15;9.50;;;4.50;;
75209;SDS011;63796;53.136;14.882;2023-05-07T03:58:45;6.30;;;3.90;;
75209;SDS011;63796;53.136;14.882;2023-05-07T04:01:12;7.00;;;4.10;;
75209;SDS011;63796;53.136;14.882;2023-05-07T04:03:40;8.40;;;4.40;;
75209;SDS011;63796;53.136;14.882;2023-05-07T04:06:07;7.00;;;4.20;;
75209;SDS011;63796;53.136;14.882;2023-05-07T04:08:34;6.70;;;4.00;;
75209;SDS011;63796;53.136;14.882;2023-05-07T04:11:02;6.70;;;4.10;;
75209;SDS011;63796;53.136;14.882;2023-05-07T04:13:30;7.20;;;4.70;;
75209;SDS011;63796;53.136;14.882;2023-05-07T04:15:57;8.90;;;4.80;;
75209;SDS011;63796;53.136;14.882;2023-05-07T04:18:25;9.90;;;5.00;;
75209;SDS011;63796;53.136;14.882;2023-05-07T04:20:52;10.50;;;4.40;;
75209;SDS011;63796;53.136;14.882;2023-05-07T04:23:19;6.50;;;4.00;;
75209;SDS011;63796;53.136;14.882;2023-05-07T04:25:46;6.40;;;4.40;;
75209;SDS011;63796;53.136;14.882;2023-05-07T04:28:14;8.50;;;4.70;;
75209;SDS011;63796;53.136;14.882;2023-05-07T04:30:41;7.40;;;4.60;;
75209;SDS011;63796;53.136;14.882;2023-05-07T04:33:08;7.70;;;4.60;;
75209;SDS011;63796;53.136;14.882;2023-05-07T04:35:35;10.20;;;5.40;;
75209;SDS011;63796;53.136;14.882;2023-05-07T04:38:03;7.30;;;5.10;;
75209;SDS011;63796;53.136;14.882;2023-05-07T04:40:30;5.80;;;4.10;;
75209;SDS011;63796;53.136;14.882;2023-05-07T04:42:58;5.30;;;4.40;;
75209;SDS011;63796;53.136;14.882;2023-05-07T04:45:25;6.90;;;4.60;;
75209;SDS011;63796;53.136;14.882;2023-05-07T04:47:52;8.20;;;4.50;;
75209;SDS011;63796;53.136;14.882;2023-05-07T04:50:19;5.50;;;4.20;;
75209;SDS011;63796;53.136;14.882;2023-05-07T04:52:47;6.40;;;4.30;;
75209;SDS011;63796;53.136;14.882;2023-05-07T04:55:14;4.90;;;4.00;;
75209;SDS011;63796;53.136;14.882;2023-05-07T04:57:41;5.10;;;4.30;;
75209;SDS011;63796;53.136;14.882;2023-05-07T05:00:09;6.80;;;4.20;;
75209;SDS011;63796;53.136;14.882;2023-05-07T05:02:37;7.80;;;4.50;;
75209;SDS011;63796;53.136;14.882;2023-05-07T05:05:05;6.20;;;3.90;;
75209;SDS011;63796;53.136;14.882;2023-05-07T05:07:32;6.90;;;4.30;;
75209;SDS011;63796;53.136;14.882;2023-05-07T05:10:01;7.90;;;4.10;;
75209;SDS011;63796;53.136;14.882;2023-05-07T05:12:29;5.80;;;3.70;;
75209;SDS011;63796;53.136;14.882;2023-05-07T05:14:57;7.30;;;4.10;;
75209;SDS011;63796;53.136;14.882;2023-05-07T05:17:24;6.40;;;4.00;;
75209;SDS011;63796;53.136;14.882;2023-05-07T05:19:51;9.60;;;4.30;;
75209;SDS011;63796;53.136;14.882;2023-05-07T05:22:19;8.00;;;3.90;;
75209;SDS011;63796;53.136;14.882;2023-05-07T05:24:47;9.20;;;4.40;;
75209;SDS011;63796;53.136;14.882;2023-05-07T05:27:15;7.90;;;4.00;;
75209;SDS011;63796;53.136;14.882;2023-05-07T05:29:42;7.40;;;4.20;;
75209;SDS011;63796;53.136;14.882;2023-05-07T05:32:09;6.80;;;4.10;;
75209;SDS011;63796;53.136;14.882;2023-05-07T05:34:37;5.90;;;3.90;;
75209;SDS011;63796;53.136;14.882;2023-05-07T05:37:04;6.80;;;4.50;;
75209;SDS011;63796;53.136;14.882;2023-05-07T05:39:31;7.20;;;4.30;;
75209;SDS011;63796;53.136;14.882;2023-05-07T05:41:58;5.40;;;4.10;;
75209;SDS011;63796;53.136;14.882;2023-05-07T05:44:26;7.60;;;5.20;;
75209;SDS011;63796;53.136;14.882;2023-05-07T05:46:54;5.80;;;4.40;;
75209;SDS011;63796;53.136;14.882;2023-05-07T05:49:26;6.80;;;4.20;;
75209;SDS011;63796;53.136;14.882;2023-05-07T05:51:53;6.50;;;4.70;;
75209;SDS011;63796;53.136;14.882;2023-05-07T05:54:20;6.70;;;4.40;;
75209;SDS011;63796;53.136;14.882;2023-05-07T05:56:48;9.40;;;4.80;;
75209;SDS011;63796;53.136;14.882;2023-05-07T05:59:16;6.30;;;4.20;;
75209;SDS011;63796;53.136;14.882;2023-05-07T06:01:43;7.90;;;4.60;;
75209;SDS011;63796;53.136;14.882;2023-05-07T06:04:10;5.10;;;4.50;;
75209;SDS011;63796;53.136;14.882;2023-05-07T06:06:37;4.80;;;4.00;;
75209;SDS011;63796;53.136;14.882;2023-05-07T06:09:05;8.10;;;4.40;;
75209;SDS011;63796;53.136;14.882;2023-05-07T06:11:32;7.00;;;4.20;;
75209;SDS011;63796;53.136;14.882;2023-05-07T06:13:59;6.80;;;4.30;;
75209;SDS011;63796;53.136;14.882;2023-05-07T06:16:26;7.90;;;4.10;;
75209;SDS011;63796;53.136;14.882;2023-05-07T06:18:54;7.20;;;4.40;;
75209;SDS011;63796;53.136;14.882;2023-05-07T06:21:21;4.80;;;4.00;;
75209;SDS011;63796;53.136;14.882;2023-05-07T06:23:48;6.60;;;3.90;;
75209;SDS011;63796;53.136;14.882;2023-05-07T06:26:16;7.00;;;3.80;;
75209;SDS011;63796;53.136;14.882;2023-05-07T06:28:43;5.90;;;3.70;;
75209;SDS011;63796;53.136;14.882;2023-05-07T06:31:14;4.80;;;3.60;;
75209;SDS011;63796;53.136;14.882;2023-05-07T06:33:44;6.40;;;4.20;;
75209;SDS011;63796;53.136;14.882;2023-05-07T06:36:12;8.30;;;4.70;;
75209;SDS011;63796;53.136;14.882;2023-05-07T06:38:39;4.60;;;3.80;;
75209;SDS011;63796;53.136;14.882;2023-05-07T06:41:06;6.30;;;4.20;;
75209;SDS011;63796;53.136;14.882;2023-05-07T06:43:34;6.70;;;4.30;;
75209;SDS011;63796;53.136;14.882;2023-05-07T06:46:01;6.00;;;4.30;;
75209;SDS011;63796;53.136;14.882;2023-05-07T06:48:28;5.20;;;3.80;;
75209;SDS011;63796;53.136;14.882;2023-05-07T06:50:55;8.30;;;4.20;;
75209;SDS011;63796;53.136;14.882;2023-05-07T06:53:24;5.20;;;4.00;;
75209;SDS011;63796;53.136;14.882;2023-05-07T06:55:52;7.50;;;4.50;;
75209;SDS011;63796;53.136;14.882;2023-05-07T06:58:19;7.20;;;4.40;;
75209;SDS011;63796;53.136;14.882;2023-05-07T07:00:47;7.00;;;4.30;;
75209;SDS011;63796;53.136;14.882;2023-05-07T07:03:14;6.40;;;4.30;;
75209;SDS011;63796;53.136;14.882;2023-05-07T07:05:41;4.80;;;3.80;;
75209;SDS011;63796;53.136;14.882;2023-05-07T07:08:09;8.00;;;3.80;;
75209;SDS011;63796;53.136;14.882;2023-05-07T07:10:37;5.00;;;4.00;;
75209;SDS011;63796;53.136;14.882;2023-05-07T07:13:04;7.30;;;4.10;;
75209;SDS011;63796;53.136;14.882;2023-05-07T07:15:31;5.40;;;3.60;;
75209;SDS011;63796;53.136;14.882;2023-05-07T07:17:58;5.30;;;4.00;;
75209;SDS011;63796;53.136;14.882;2023-05-07T07:20:26;6.00;;;4.30;;
75209;SDS011;63796;53.136;14.882;2023-05-07T07:22:53;6.60;;;4.10;;
75209;SDS011;63796;53.136;14.882;2023-05-07T07:25:21;4.60;;;4.00;;
75209;SDS011;63796;53.136;14.882;2023-05-07T07:27:49;6.10;;;4.00;;
75209;SDS011;63796;53.136;14.882;2023-05-07T07:30:16;4.80;;;3.40;;
75209;SDS011;63796;53.136;14.882;2023-05-07T07:32:43;5.50;;;4.40;;
75209;SDS011;63796;53.136;14.882;2023-05-07T07:35:11;5.10;;;4.30;;
75209;SDS011;63796;53.136;14.882;2023-05-07T07:37:38;5.50;;;3.40;;
75209;SDS011;63796;53.136;14.882;2023-05-07T07:40:06;4.60;;;3.50;;
75209;SDS011;63796;53.136;14.882;2023-05-07T07:42:33;4.90;;;3.40;;
75209;SDS011;63796;53.136;14.882;2023-05-07T07:45:01;3.20;;;3.00;;
75209;SDS011;63796;53.136;14.882;2023-05-07T07:47:28;4.20;;;3.30;;
75209;SDS011;63796;53.136;14.882;2023-05-07T07:49:56;3.90;;;2.80;;
75209;SDS011;63796;53.136;14.882;2023-05-07T07:52:23;3.90;;;3.00;;
75209;SDS011;63796;53.136;14.882;2023-05-07T07:54:50;3.70;;;3.30;;
75209;SDS011;63796;53.136;14.882;2023-05-07T07:57:18;4.30;;;3.30;;
75209;SDS011;63796;53.136;14.882;2023-05-07T07:59:45;3.30;;;3.00;;
75209;SDS011;63796;53.136;14.882;2023-05-07T08:02:12;3.40;;;3.10;;
75209;SDS011;63796;53.136;14.882;2023-05-07T08:04:39;3.30;;;3.00;;
75209;SDS011;63796;53.136;14.882;2023-05-07T08:07:07;3.90;;;3.60;;
75209;SDS011;63796;53.136;14.882;2023-05-07T08:09:34;5.20;;;3.50;;
75209;SDS011;63796;53.136;14.882;2023-05-07T08:12:02;7.90;;;4.90;;
75209;SDS011;63796;53.136;14.882;2023-05-07T08:14:29;5.20;;;4.00;;
75209;SDS011;63796;53.136;14.882;2023-05-07T08:16:57;4.80;;;3.40;;
75209;SDS011;63796;53.136;14.882;2023-05-07T08:19:24;4.50;;;3.60;;
75209;SDS011;63796;53.136;14.882;2023-05-07T08:21:51;6.00;;;3.40;;
75209;SDS011;63796;53.136;14.882;2023-05-07T08:24:19;3.60;;;3.10;;
75209;SDS011;63796;53.136;14.882;2023-05-07T08:26:46;4.10;;;3.80;;
75209;SDS011;63796;53.136;14.882;2023-05-07T08:29:13;3.70;;;3.40;;
75209;SDS011;63796;53.136;14.882;2023-05-07T08:31:41;3.60;;;3.30;;
75209;SDS011;63796;53.136;14.882;2023-05-07T08:34:08;4.30;;;3.60;;
75209;SDS011;63796;53.136;14.882;2023-05-07T08:36:36;3.60;;;3.30;;
75209;SDS011;63796;53.136;14.882;2023-05-07T08:39:03;4.80;;;4.10;;
75209;SDS011;63796;53.136;14.882;2023-05-07T08:41:31;4.60;;;3.60;;
75209;SDS011;63796;53.136;14.882;2023-05-07T08:43:59;3.60;;;3.30;;
75209;SDS011;63796;53.136;14.882;2023-05-07T08:46:29;3.80;;;3.40;;
75209;SDS011;63796;53.136;14.882;2023-05-07T08:48:58;4.20;;;3.80;;
75209;SDS011;63796;53.136;14.882;2023-05-07T08:51:25;3.70;;;3.40;;
75209;SDS011;63796;53.136;14.882;2023-05-07T08:53:54;7.70;;;3.60;;
75209;SDS011;63796;53.136;14.882;2023-05-07T08:56:21;4.00;;;3.60;;
75209;SDS011;63796;53.136;14.882;2023-05-07T08:58:48;3.90;;;3.60;;
75209;SDS011;63796;53.136;14.882;2023-05-07T09:01:16;5.10;;;4.00;;
75209;SDS011;63796;53.136;14.882;2023-05-07T09:03:45;5.10;;;3.70;;
75209;SDS011;63796;53.136;14.882;2023-05-07T09:06:14;4.80;;;3.60;;
75209;SDS011;63796;53.136;14.882;2023-05-07T09:08:49;4.70;;;3.10;;
75209;SDS011;63796;53.136;14.882;2023-05-07T09:11:20;3.60;;;3.00;;
75209;SDS011;63796;53.136;14.882;2023-05-07T09:13:52;4.20;;;3.20;;
75209;SDS011;63796;53.136;14.882;2023-05-07T09:16:20;3.60;;;3.30;;
75209;SDS011;63796;53.136;14.882;2023-05-07T09:18:51;4.00;;;3.50;;
75209;SDS011;63796;53.136;14.882;2023-05-07T09:21:19;5.70;;;3.40;;
75209;SDS011;63796;53.136;14.882;2023-05-07T09:23:55;4.80;;;3.50;;
75209;SDS011;63796;53.136;14.882;2023-05-07T09:26:23;3.80;;;3.50;;
75209;SDS011;63796;53.136;14.882;2023-05-07T09:28:51;3.60;;;3.30;;
75209;SDS011;63796;53.136;14.882;2023-05-07T09:31:18;5.20;;;3.40;;
75209;SDS011;63796;53.136;14.882;2023-05-07T09:33:47;4.30;;;3.90;;
75209;SDS011;63796;53.136;14.882;2023-05-07T09:36:15;4.50;;;4.10;;
75209;SDS011;63796;53.136;14.882;2023-05-07T09:38:42;6.50;;;3.90;;
75209;SDS011;63796;53.136;14.882;2023-05-07T09:41:11;4.20;;;3.90;;
75209;SDS011;63796;53.136;14.882;2023-05-07T09:43:40;4.30;;;3.90;;
75209;SDS011;63796;53.136;14.882;2023-05-07T09:46:17;4.20;;;3.90;;
75209;SDS011;63796;53.136;14.882;2023-05-07T09:48:48;4.90;;;4.10;;
75209;SDS011;63796;53.136;14.882;2023-05-07T09:51:24;4.20;;;3.90;;
75209;SDS011;63796;53.136;14.882;2023-05-07T09:53:53;4.20;;;3.80;;
75209;SDS011;63796;53.136;14.882;2023-05-07T09:56:21;4.10;;;3.70;;
75209;SDS011;63796;53.136;14.882;2023-05-07T09:58:49;3.50;;;3.20;;
75209;SDS011;63796;53.136;14.882;2023-05-07T10:01:17;3.80;;;3.50;;
75209;SDS011;63796;53.136;14.882;2023-05-07T10:03:48;7.00;;;3.70;;
75209;SDS011;63796;53.136;14.882;2023-05-07T10:06:17;3.90;;;3.50;;
75209;SDS011;63796;53.136;14.882;2023-05-07T10:08:45;3.40;;;3.10;;
75209;SDS011;63796;53.136;14.882;2023-05-07T10:11:13;3.90;;;3.60;;
75209;SDS011;63796;53.136;14.882;2023-05-07T10:13:43;4.00;;;3.70;;
75209;SDS011;63796;53.136;14.882;2023-05-07T10:16:10;4.10;;;3.70;;
75209;SDS011;63796;53.136;14.882;2023-05-07T10:18:38;5.10;;;3.50;;
75209;SDS011;63796;53.136;14.882;2023-05-07T10:21:18;4.30;;;3.90;;
75209;SDS011;63796;53.136;14.882;2023-05-07T10:23:49;3.60;;;3.30;;
75209;SDS011;63796;53.136;14.882;2023-05-07T10:26:18;3.90;;;3.60;;
75209;SDS011;63796;53.136;14.882;2023-05-07T10:28:52;7.10;;;4.20;;
75209;SDS011;63796;53.136;14.882;2023-05-07T10:34:11;3.70;;;3.40;;
75209;SDS011;63796;53.136;14.882;2023-05-07T10:36:39;4.30;;;3.90;;
75209;SDS011;63796;53.136;14.882;2023-05-07T10:39:06;4.10;;;3.60;;
75209;SDS011;63796;53.136;14.882;2023-05-07T10:41:34;4.30;;;3.90;;
75209;SDS011;63796;53.136;14.882;2023-05-07T10:44:01;4.00;;;3.70;;
75209;SDS011;63796;53.136;14.882;2023-05-07T10:46:29;3.90;;;3.50;;
75209;SDS011;63796;53.136;14.882;2023-05-07T10:51:30;5.60;;;3.50;;
75209;SDS011;63796;53.136;14.882;2023-05-07T10:56:41;4.60;;;3.10;;
75209;SDS011;63796;53.136;14.882;2023-05-07T11:04:17;4.10;;;3.10;;
75209;SDS011;63796;53.136;14.882;2023-05-07T11:15:13;3.50;;;3.20;;
75209;SDS011;63796;53.136;14.882;2023-05-07T11:17:56;3.50;;;3.10;;
75209;SDS011;63796;53.136;14.882;2023-05-07T11:26:06;3.10;;;2.80;;
75209;SDS011;63796;53.136;14.882;2023-05-07T11:28:38;2.90;;;2.70;;
75209;SDS011;63796;53.136;14.882;2023-05-07T11:31:06;3.40;;;2.60;;
75209;SDS011;63796;53.136;14.882;2023-05-07T11:33:34;3.10;;;2.80;;
75209;SDS011;63796;53.136;14.882;2023-05-07T11:36:05;3.80;;;2.70;;
75209;SDS011;63796;53.136;14.882;2023-05-07T11:38:36;2.70;;;2.50;;
75209;SDS011;63796;53.136;14.882;2023-05-07T11:41:06;3.10;;;2.40;;
75209;SDS011;63796;53.136;14.882;2023-05-07T11:43:34;6.30;;;2.80;;
75209;SDS011;63796;53.136;14.882;2023-05-07T11:46:10;3.10;;;2.20;;
75209;SDS011;63796;53.136;14.882;2023-05-07T11:48:38;2.70;;;2.20;;
75209;SDS011;63796;53.136;14.882;2023-05-07T11:51:06;5.00;;;2.40;;
75209;SDS011;63796;53.136;14.882;2023-05-07T11:53:41;3.50;;;2.60;;
75209;SDS011;63796;53.136;14.882;2023-05-07T11:56:09;2.50;;;2.20;;
75209;SDS011;63796;53.136;14.882;2023-05-07T11:58:37;3.30;;;2.70;;
75209;SDS011;63796;53.136;14.882;2023-05-07T12:01:08;3.70;;;2.40;;
75209;SDS011;63796;53.136;14.882;2023-05-07T12:03:36;2.10;;;1.90;;
75209;SDS011;63796;53.136;14.882;2023-05-07T12:06:05;2.20;;;1.90;;
75209;SDS011;63796;53.136;14.882;2023-05-07T12:08:36;3.60;;;2.70;;
75209;SDS011;63796;53.136;14.882;2023-05-07T12:11:07;2.30;;;2.10;;
75209;SDS011;63796;53.136;14.882;2023-05-07T12:13:35;2.20;;;1.80;;
75209;SDS011;63796;53.136;14.882;2023-05-07T12:16:04;3.20;;;1.90;;
75209;SDS011;63796;53.136;14.882;2023-05-07T12:18:34;5.20;;;2.30;;
75209;SDS011;63796;53.136;14.882;2023-05-07T12:21:04;2.70;;;2.00;;
75209;SDS011;63796;53.136;14.882;2023-05-07T12:23:33;2.80;;;1.70;;
75209;SDS011;63796;53.136;14.882;2023-05-07T12:26:00;5.30;;;1.70;;
75209;SDS011;63796;53.136;14.882;2023-05-07T12:28:31;2.80;;;1.50;;
75209;SDS011;63796;53.136;14.882;2023-05-07T12:30:58;4.10;;;1.60;;
75209;SDS011;63796;53.136;14.882;2023-05-07T12:33:26;5.40;;;1.90;;
75209;SDS011;63796;53.136;14.882;2023-05-07T12:35:55;1.60;;;1.50;;
75209;SDS011;63796;53.136;14.882;2023-05-07T12:38:23;2.10;;;1.60;;
75209;SDS011;63796;53.136;14.882;2023-05-07T12:40:54;4.30;;;1.70;;
75209;SDS011;63796;53.136;14.882;2023-05-07T12:43:26;3.70;;;1.90;;
75209;SDS011;63796;53.136;14.882;2023-05-07T12:45:55;2.10;;;1.40;;
75209;SDS011;63796;53.136;14.882;2023-05-07T12:48:23;1.30;;;1.20;;
75209;SDS011;63796;53.136;14.882;2023-05-07T12:50:55;1.60;;;1.50;;
75209;SDS011;63796;53.136;14.882;2023-05-07T12:53:24;3.30;;;1.50;;
75209;SDS011;63796;53.136;14.882;2023-05-07T12:55:55;2.70;;;1.30;;
75209;SDS011;63796;53.136;14.882;2023-05-07T12:58:28;3.80;;;1.60;;
75209;SDS011;63796;53.136;14.882;2023-05-07T13:00:56;2.70;;;1.70;;
75209;SDS011;63796;53.136;14.882;2023-05-07T13:03:31;6.70;;;1.60;;
75209;SDS011;63796;53.136;14.882;2023-05-07T13:06:06;2.80;;;1.40;;
75209;SDS011;63796;53.136;14.882;2023-05-07T13:08:36;2.00;;;1.30;;
75209;SDS011;63796;53.136;14.882;2023-05-07T13:11:04;3.00;;;1.80;;
75209;SDS011;63796;53.136;14.882;2023-05-07T13:13:33;3.60;;;1.50;;
75209;SDS011;63796;53.136;14.882;2023-05-07T13:16:02;2.90;;;1.70;;
75209;SDS011;63796;53.136;14.882;2023-05-07T13:18:30;2.50;;;1.60;;
75209;SDS011;63796;53.136;14.882;2023-05-07T13:20:59;2.50;;;1.00;;
75209;SDS011;63796;53.136;14.882;2023-05-07T13:23:27;2.70;;;1.40;;
75209;SDS011;63796;53.136;14.882;2023-05-07T13:25:55;1.30;;;1.00;;
75209;SDS011;63796;53.136;14.882;2023-05-07T13:28:23;1.70;;;1.30;;
75209;SDS011;63796;53.136;14.882;2023-05-07T13:30:52;2.80;;;1.70;;
75209;SDS011;63796;53.136;14.882;2023-05-07T13:33:19;3.60;;;1.30;;
75209;SDS011;63796;53.136;14.882;2023-05-07T13:35:46;1.00;;;0.80;;
75209;SDS011;63796;53.136;14.882;2023-05-07T13:38:14;2.30;;;1.30;;
75209;SDS011;63796;53.136;14.882;2023-05-07T13:40:43;1.60;;;1.00;;
75209;SDS011;63796;53.136;14.882;2023-05-07T13:43:10;2.60;;;1.10;;
75209;SDS011;63796;53.136;14.882;2023-05-07T13:45:37;1.40;;;1.10;;
75209;SDS011;63796;53.136;14.882;2023-05-07T13:48:05;2.10;;;1.10;;
75209;SDS011;63796;53.136;14.882;2023-05-07T13:50:32;2.90;;;1.70;;
75209;SDS011;63796;53.136;14.882;2023-05-07T13:53:00;2.60;;;1.00;;
75209;SDS011;63796;53.136;14.882;2023-05-07T13:55:28;3.00;;;1.00;;
75209;SDS011;63796;53.136;14.882;2023-05-07T13:58:01;4.40;;;1.50;;
75209;SDS011;63796;53.136;14.882;2023-05-07T14:00:33;2.50;;;1.40;;
75209;SDS011;63796;53.136;14.882;2023-05-07T14:03:01;2.90;;;1.40;;
75209;SDS011;63796;53.136;14.882;2023-05-07T14:05:28;4.30;;;1.00;;
75209;SDS011;63796;53.136;14.882;2023-05-07T14:07:57;1.90;;;1.20;;
75209;SDS011;63796;53.136;14.882;2023-05-07T14:10:24;2.30;;;1.40;;
75209;SDS011;63796;53.136;14.882;2023-05-07T14:12:52;2.30;;;1.40;;
75209;SDS011;63796;53.136;14.882;2023-05-07T14:15:22;2.90;;;1.20;;
75209;SDS011;63796;53.136;14.882;2023-05-07T14:17:50;3.00;;;1.20;;
75209;SDS011;63796;53.136;14.882;2023-05-07T14:20:17;2.90;;;1.00;;
75209;SDS011;63796;53.136;14.882;2023-05-07T14:22:44;3.00;;;1.00;;
75209;SDS011;63796;53.136;14.882;2023-05-07T14:25:12;2.00;;;1.20;;
75209;SDS011;63796;53.136;14.882;2023-05-07T14:27:40;2.50;;;1.10;;
75209;SDS011;63796;53.136;14.882;2023-05-07T14:30:08;2.80;;;1.10;;
75209;SDS011;63796;53.136;14.882;2023-05-07T14:32:35;3.40;;;1.30;;
75209;SDS011;63796;53.136;14.882;2023-05-07T14:35:03;3.00;;;1.10;;
75209;SDS011;63796;53.136;14.882;2023-05-07T14:37:31;1.80;;;1.20;;
75209;SDS011;63796;53.136;14.882;2023-05-07T14:39:58;4.40;;;1.60;;
75209;SDS011;63796;53.136;14.882;2023-05-07T14:42:25;2.30;;;1.30;;
75209;SDS011;63796;53.136;14.882;2023-05-07T14:44:53;4.40;;;1.30;;
75209;SDS011;63796;53.136;14.882;2023-05-07T14:47:20;1.90;;;1.30;;
75209;SDS011;63796;53.136;14.882;2023-05-07T14:49:47;3.90;;;1.00;;
75209;SDS011;63796;53.136;14.882;2023-05-07T14:52:14;3.70;;;1.80;;
75209;SDS011;63796;53.136;14.882;2023-05-07T14:54:42;2.10;;;1.40;;
75209;SDS011;63796;53.136;14.882;2023-05-07T14:57:10;2.90;;;1.40;;
75209;SDS011;63796;53.136;14.882;2023-05-07T14:59:40;3.80;;;1.30;;
75209;SDS011;63796;53.136;14.882;2023-05-07T15:02:10;3.40;;;1.30;;
75209;SDS011;63796;53.136;14.882;2023-05-07T15:04:38;3.20;;;1.20;;
75209;SDS011;63796;53.136;14.882;2023-05-07T15:07:13;2.60;;;1.70;;
75209;SDS011;63796;53.136;14.882;2023-05-07T15:09:44;2.90;;;1.20;;